Time;durP1;ratioP1;P1;durP2;ratioP2;P2;SDS_P1;SDS_P2;PMS_P1;PMS_P2;Temp;Humidity;BMP_temperature;BMP_pressure;BME280_temperature;BME280_humidity;BME280_pressure;Samples;Min_cycle;Max_cycle;Signal;HPM_P1;HPM_P2
2023/08/09 00:01:37;;;;;;;7.50;2.72;;;14.20;80.70;;;;;;5007265;28;20432;-76
2023/08/09 00:04:10;;;;;;;7.50;3.20;;;14.10;80.60;;;;;;5005400;28;20050;-75
2023/08/09 00:06:38;;;;;;;7.28;3.10;;;14.10;80.70;;;;;;5014550;28;20285;-76
2023/08/09 00:09:05;;;;;;;7.18;3.20;;;14.10;80.90;;;;;;5007702;28;20046;-76
2023/08/09 00:11:32;;;;;;;8.32;3.40;;;14.00;80.90;;;;;;5013869;28;20477;-76
2023/08/09 00:14:00;;;;;;;9.63;3.10;;;14.00;80.90;;;;;;5008133;28;20494;-76
2023/08/09 00:16:27;;;;;;;7.57;3.00;;;14.00;81.20;;;;;;5006677;28;20054;-77
2023/08/09 00:18:55;;;;;;;7.43;3.33;;;14.00;81.10;;;;;;5018526;28;20424;-77
2023/08/09 00:21:22;;;;;;;7.93;3.20;;;13.90;81.20;;;;;;5015640;28;20051;-77
2023/08/09 00:23:50;;;;;;;7.88;3.33;;;13.90;81.40;;;;;;5006434;28;20495;-76
2023/08/09 00:26:17;;;;;;;7.85;3.28;;;13.90;81.40;;;;;;5011559;28;20053;-77
2023/08/09 00:28:45;;;;;;;9.50;3.67;;;14.00;81.40;;;;;;4984136;28;20050;-77
2023/08/09 00:31:13;;;;;;;9.38;3.85;;;13.90;81.60;;;;;;5003559;28;20314;-77
2023/08/09 00:33:41;;;;;;;9.18;3.95;;;14.00;81.60;;;;;;4997249;28;20057;-77
2023/08/09 00:36:08;;;;;;;12.05;4.30;;;14.00;82.00;;;;;;5011967;28;20513;-77
2023/08/09 00:38:36;;;;;;;11.90;4.70;;;14.00;82.30;;;;;;5025589;28;20706;-77
2023/08/09 00:41:03;;;;;;;11.87;4.90;;;13.90;82.50;;;;;;5015484;28;20130;-77
2023/08/09 00:43:29;;;;;;;13.27;4.90;;;14.00;82.60;;;;;;5025516;28;20350;-77
2023/08/09 00:45:56;;;;;;;14.20;4.97;;;13.90;82.80;;;;;;5005733;28;20479;-77
2023/08/09 00:48:25;;;;;;;13.20;4.45;;;13.90;83.10;;;;;;5014016;28;20082;-77
2023/08/09 00:50:53;;;;;;;10.15;4.47;;;13.90;83.20;;;;;;4998120;28;20082;-77
2023/08/09 00:53:21;;;;;;;13.67;4.30;;;13.90;83.30;;;;;;5023528;28;20054;-77
2023/08/09 00:55:48;;;;;;;12.02;5.15;;;13.90;83.40;;;;;;5008758;28;20274;-77
2023/08/09 00:58:17;;;;;;;17.38;5.90;;;13.90;83.20;;;;;;4997851;28;20105;-77
2023/08/09 01:00:44;;;;;;;17.95;5.20;;;13.90;83.50;;;;;;5001667;28;20051;-77
2023/08/09 01:03:11;;;;;;;19.38;6.07;;;13.80;83.60;;;;;;4984517;28;20046;-77
2023/08/09 01:05:51;;;;;;;14.37;5.97;;;13.80;84.00;;;;;;4993567;28;20050;-78
2023/08/09 01:08:27;;;;;;;10.10;4.78;;;13.90;84.60;;;;;;5012592;28;20270;-77
2023/08/09 01:11:09;;;;;;;10.70;5.65;;;13.90;84.70;;;;;;5012445;28;20051;-77
2023/08/09 01:13:41;;;;;;;12.90;5.57;;;13.80;84.50;;;;;;5010966;28;20235;-77
2023/08/09 01:16:11;;;;;;;10.63;5.38;;;13.80;84.60;;;;;;5023637;28;20539;-76
2023/08/09 01:18:40;;;;;;;10.33;4.57;;;13.80;84.50;;;;;;4997475;28;20140;-77
2023/08/09 01:21:09;;;;;;;11.90;5.85;;;13.70;84.50;;;;;;5015184;28;20321;-78
2023/08/09 01:23:38;;;;;;;11.27;5.55;;;13.70;84.60;;;;;;5023124;28;20047;-77
2023/08/09 01:26:05;;;;;;;20.30;7.05;;;13.80;84.70;;;;;;5011438;28;20149;-77
2023/08/09 01:28:33;;;;;;;14.55;5.53;;;13.70;85.00;;;;;;5001398;28;20078;-77
2023/08/09 01:31:00;;;;;;;11.77;5.80;;;13.70;84.80;;;;;;4993790;28;20051;-77
2023/08/09 01:33:27;;;;;;;13.60;5.45;;;13.70;84.70;;;;;;5001740;28;20254;-77
2023/08/09 01:35:57;;;;;;;10.82;5.90;;;13.60;84.80;;;;;;4997812;28;20744;-78
2023/08/09 01:38:29;;;;;;;12.50;6.18;;;13.60;84.80;;;;;;4987988;28;20511;-77
2023/08/09 01:40:58;;;;;;;11.70;5.85;;;13.60;84.80;;;;;;4980607;28;20301;-77
2023/08/09 01:43:26;;;;;;;11.20;5.60;;;13.60;84.70;;;;;;4999315;28;20054;-76
2023/08/09 01:45:54;;;;;;;12.02;5.35;;;13.60;84.80;;;;;;5006796;28;20279;-78
2023/08/09 01:48:21;;;;;;;9.93;5.50;;;13.60;84.60;;;;;;5010743;28;20141;-76
2023/08/09 01:50:49;;;;;;;13.00;5.75;;;13.60;84.60;;;;;;5010272;28;20054;-77
2023/08/09 01:53:16;;;;;;;10.75;5.65;;;13.50;84.60;;;;;;5013979;28;20038;-77
2023/08/09 01:55:43;;;;;;;10.33;5.13;;;13.50;84.60;;;;;;4999890;28;20046;-77
2023/08/09 01:58:11;;;;;;;10.98;5.53;;;13.50;84.50;;;;;;4999469;28;20262;-77
2023/08/09 02:00:38;;;;;;;10.07;5.68;;;13.50;84.40;;;;;;5015390;28;20148;-77
2023/08/09 02:03:06;;;;;;;10.52;5.85;;;13.50;84.60;;;;;;4996965;28;20788;-77
2023/08/09 02:05:33;;;;;;;11.00;5.55;;;13.50;84.60;;;;;;5013253;28;20050;-77
2023/08/09 02:08:00;;;;;;;9.60;5.43;;;13.50;84.50;;;;;;5013891;28;20142;-77
2023/08/09 02:10:27;;;;;;;10.65;5.22;;;13.50;84.30;;;;;;5021876;28;20243;-77
2023/08/09 02:12:54;;;;;;;11.75;5.75;;;13.50;84.20;;;;;;4995748;28;20051;-77
2023/08/09 02:15:23;;;;;;;12.05;5.93;;;13.50;84.20;;;;;;4991621;28;20050;-77
2023/08/09 02:17:50;;;;;;;11.25;5.32;;;13.50;84.20;;;;;;5004446;28;20053;-76
2023/08/09 02:20:19;;;;;;;8.83;5.20;;;13.50;84.10;;;;;;5013303;28;20073;-77
2023/08/09 02:22:46;;;;;;;10.85;5.70;;;13.50;84.10;;;;;;4996670;28;20262;-77
2023/08/09 02:25:14;;;;;;;11.40;6.15;;;13.50;84.00;;;;;;5010729;28;20054;-77
2023/08/09 02:27:41;;;;;;;11.05;5.55;;;13.50;84.00;;;;;;5003683;28;20054;-78
2023/08/09 02:30:09;;;;;;;9.93;4.93;;;13.40;83.90;;;;;;5009927;28;20051;-77
2023/08/09 02:32:38;;;;;;;9.83;5.40;;;13.40;83.90;;;;;;5006010;28;20113;-77
2023/08/09 02:35:06;;;;;;;10.60;5.60;;;13.30;83.80;;;;;;5025799;28;20282;-76
2023/08/09 02:37:34;;;;;;;10.32;5.43;;;13.30;83.70;;;;;;5028927;28;20051;-76
2023/08/09 02:40:01;;;;;;;10.05;4.97;;;13.30;83.70;;;;;;5004628;28;20046;-78
2023/08/09 02:42:28;;;;;;;10.15;5.72;;;13.30;83.70;;;;;;4996271;28;20050;-76
2023/08/09 02:44:55;;;;;;;9.63;5.20;;;13.30;83.70;;;;;;5004725;28;20079;-77
2023/08/09 02:47:23;;;;;;;15.40;5.88;;;13.30;83.70;;;;;;4996900;28;20764;-77
2023/08/09 02:49:51;;;;;;;10.10;5.45;;;13.20;83.70;;;;;;5011181;28;20065;-76
2023/08/09 02:52:18;;;;;;;11.05;5.68;;;13.20;83.70;;;;;;5010355;28;20081;-77
2023/08/09 02:54:45;;;;;;;8.82;5.07;;;13.20;83.70;;;;;;4996894;28;20050;-77
2023/08/09 02:57:12;;;;;;;10.57;5.87;;;13.20;83.70;;;;;;4996739;28;20074;-77
2023/08/09 02:59:39;;;;;;;9.43;5.35;;;13.20;83.70;;;;;;4996822;28;20285;-77
2023/08/09 03:02:07;;;;;;;9.70;5.68;;;13.10;83.70;;;;;;4995721;28;20054;-77
2023/08/09 03:04:34;;;;;;;9.77;5.60;;;13.10;83.70;;;;;;4994376;28;20074;-77
2023/08/09 03:07:03;;;;;;;10.23;5.40;;;13.20;83.70;;;;;;5028963;28;20128;-77
2023/08/09 03:09:30;;;;;;;9.67;5.50;;;13.10;83.70;;;;;;5003788;28;20131;-77
2023/08/09 03:11:57;;;;;;;10.43;5.95;;;13.10;83.60;;;;;;5004195;28;20318;-77
2023/08/09 03:14:25;;;;;;;10.45;5.85;;;13.10;83.60;;;;;;5006034;28;20894;-77
2023/08/09 03:16:53;;;;;;;10.23;5.53;;;13.10;83.50;;;;;;5004778;28;20054;-77
2023/08/09 03:19:20;;;;;;;9.00;5.55;;;13.10;83.50;;;;;;5010947;28;20117;-77
2023/08/09 03:21:49;;;;;;;10.33;5.83;;;13.10;83.40;;;;;;5002918;28;20050;-77
2023/08/09 03:24:18;;;;;;;11.23;5.90;;;13.10;83.50;;;;;;5010585;28;20285;-77
2023/08/09 03:26:45;;;;;;;12.10;6.03;;;13.10;83.50;;;;;;4995896;28;20168;-77
2023/08/09 03:29:16;;;;;;;10.57;5.80;;;13.00;83.40;;;;;;4995995;28;20057;-77
2023/08/09 03:31:43;;;;;;;9.70;6.00;;;13.00;83.50;;;;;;5012426;28;20050;-77
2023/08/09 03:34:12;;;;;;;9.37;5.90;;;13.00;83.50;;;;;;5010998;28;20134;-77
2023/08/09 03:36:39;;;;;;;9.73;5.78;;;13.00;83.60;;;;;;5003977;28;20251;-77
2023/08/09 03:39:06;;;;;;;10.52;5.68;;;12.90;83.50;;;;;;5009625;28;20101;-77
2023/08/09 03:41:34;;;;;;;9.95;6.25;;;12.90;83.60;;;;;;4988675;28;20086;-77
2023/08/09 03:44:01;;;;;;;10.18;6.05;;;12.90;83.70;;;;;;5012225;28;20054;-77
2023/08/09 03:46:28;;;;;;;11.27;6.10;;;12.90;83.70;;;;;;5025544;28;20062;-77
2023/08/09 03:48:56;;;;;;;9.25;5.60;;;12.80;83.70;;;;;;4992732;28;20261;-77
2023/08/09 03:51:23;;;;;;;9.57;5.55;;;12.80;83.80;;;;;;5021692;28;20050;-77
2023/08/09 03:53:51;;;;;;;11.18;6.30;;;12.80;83.80;;;;;;5000201;28;20113;-77
2023/08/09 03:56:18;;;;;;;9.65;5.50;;;12.70;83.70;;;;;;4994532;28;20050;-77
2023/08/09 03:58:46;;;;;;;9.47;6.20;;;12.80;83.90;;;;;;5012912;28;20058;-77
2023/08/09 04:01:13;;;;;;;9.95;5.68;;;12.70;84.00;;;;;;4994030;28;20250;-77
2023/08/09 04:03:40;;;;;;;9.55;6.28;;;12.70;83.90;;;;;;5011873;28;20065;-77
2023/08/09 04:06:07;;;;;;;9.60;6.15;;;12.70;84.00;;;;;;5012349;28;20085;-77
2023/08/09 04:08:35;;;;;;;9.18;6.38;;;12.70;83.90;;;;;;5004970;28;20106;-77
2023/08/09 04:11:04;;;;;;;10.53;6.37;;;12.70;83.90;;;;;;5026298;28;20053;-77
2023/08/09 04:13:31;;;;;;;9.90;6.15;;;12.70;84.00;;;;;;4980845;28;20377;-77
2023/08/09 04:15:59;;;;;;;10.48;6.80;;;12.60;84.00;;;;;;5010665;28;20058;-76
2023/08/09 04:18:26;;;;;;;10.32;6.90;;;12.60;84.00;;;;;;5011494;28;20051;-77
2023/08/09 04:20:53;;;;;;;8.98;6.45;;;12.60;84.00;;;;;;5002523;28;20046;-78
2023/08/09 04:23:20;;;;;;;10.30;6.70;;;12.60;84.10;;;;;;4991499;28;20055;-77
2023/08/09 04:25:48;;;;;;;11.45;6.80;;;12.60;84.10;;;;;;4999706;28;20279;-76
2023/08/09 04:28:15;;;;;;;9.90;6.38;;;12.60;84.20;;;;;;5002900;28;20058;-77
2023/08/09 04:30:42;;;;;;;9.52;6.65;;;12.50;84.10;;;;;;4994496;28;20043;-76
2023/08/09 04:33:10;;;;;;;9.40;6.50;;;12.50;84.10;;;;;;5022695;28;20047;-77
2023/08/09 04:35:37;;;;;;;9.90;6.37;;;12.50;84.20;;;;;;5003283;28;20043;-77
2023/08/09 04:38:05;;;;;;;11.18;6.40;;;12.50;84.10;;;;;;5008733;28;20673;-76
2023/08/09 04:40:32;;;;;;;9.60;5.97;;;12.50;84.10;;;;;;4994521;28;20154;-76
2023/08/09 04:42:58;;;;;;;9.80;6.43;;;12.50;84.10;;;;;;5003824;28;20460;-77
2023/08/09 04:45:25;;;;;;;9.15;5.85;;;12.50;84.10;;;;;;5027649;28;20051;-77
2023/08/09 04:47:53;;;;;;;10.23;6.10;;;12.50;84.10;;;;;;5010090;28;20061;-77
2023/08/09 04:50:22;;;;;;;8.88;5.97;;;12.50;84.30;;;;;;5001675;28;20824;-77
2023/08/09 04:52:49;;;;;;;9.20;6.00;;;12.50;84.50;;;;;;5006575;28;20078;-76
2023/08/09 04:55:16;;;;;;;9.13;6.15;;;12.40;84.50;;;;;;5014848;28;20063;-77
2023/08/09 04:57:43;;;;;;;10.50;6.20;;;12.40;84.50;;;;;;4990101;28;20051;-77
2023/08/09 05:00:13;;;;;;;9.50;6.27;;;12.40;84.50;;;;;;5011143;28;20712;-76
2023/08/09 05:02:41;;;;;;;8.98;5.57;;;12.40;84.60;;;;;;4991228;28;20341;-77
2023/08/09 05:05:09;;;;;;;9.40;6.25;;;12.40;84.70;;;;;;5013912;28;20101;-77
2023/08/09 05:07:39;;;;;;;9.60;6.25;;;12.30;84.80;;;;;;5008719;28;20126;-77
2023/08/09 05:10:07;;;;;;;9.43;6.00;;;12.40;85.00;;;;;;5012369;28;20078;-76
2023/08/09 05:12:34;;;;;;;9.27;6.20;;;12.40;85.00;;;;;;5002403;28;20066;-76
2023/08/09 05:15:01;;;;;;;9.02;5.78;;;12.30;85.00;;;;;;5005280;28;20276;-77
2023/08/09 05:17:29;;;;;;;8.98;5.82;;;12.40;85.10;;;;;;5005709;28;20042;-77
2023/08/09 05:19:56;;;;;;;9.75;5.85;;;12.40;85.10;;;;;;5012749;28;20058;-77
2023/08/09 05:22:24;;;;;;;10.05;5.85;;;12.40;85.10;;;;;;5004698;28;20054;-76
2023/08/09 05:24:52;;;;;;;7.63;5.17;;;12.40;85.10;;;;;;5011299;28;20054;-77
2023/08/09 05:27:19;;;;;;;9.35;5.78;;;12.50;85.30;;;;;;5012245;28;20250;-76
2023/08/09 05:29:46;;;;;;;9.55;5.72;;;12.40;85.30;;;;;;5012313;28;20054;-76
2023/08/09 05:32:14;;;;;;;7.47;5.18;;;12.50;85.40;;;;;;5012643;28;20556;-77
2023/08/09 05:34:41;;;;;;;8.98;5.95;;;12.50;85.70;;;;;;5029068;28;20057;-76
2023/08/09 05:37:08;;;;;;;9.83;5.97;;;12.50;85.70;;;;;;5003038;28;20142;-76
2023/08/09 05:39:35;;;;;;;8.55;5.30;;;12.50;85.80;;;;;;5012440;28;20349;-76
2023/08/09 05:42:04;;;;;;;9.30;5.70;;;12.50;85.80;;;;;;4994239;28;20047;-76
2023/08/09 05:44:30;;;;;;;10.00;5.30;;;12.50;86.00;;;;;;5006065;28;20077;-77
2023/08/09 05:46:58;;;;;;;7.53;5.20;;;12.50;86.10;;;;;;5003979;28;20097;-76
2023/08/09 05:49:25;;;;;;;9.60;5.87;;;12.50;86.20;;;;;;5000585;28;20067;-76
2023/08/09 05:51:53;;;;;;;8.88;5.60;;;12.50;86.40;;;;;;4998865;28;20748;-76
2023/08/09 05:54:20;;;;;;;8.23;5.38;;;12.50;86.30;;;;;;5009508;28;20456;-76
2023/08/09 05:56:47;;;;;;;8.30;5.63;;;12.50;86.30;;;;;;5007619;28;20541;-76
2023/08/09 05:59:15;;;;;;;8.35;4.93;;;12.50;86.50;;;;;;5010278;28;20093;-77
2023/08/09 06:01:43;;;;;;;7.97;5.40;;;12.60;86.50;;;;;;5008911;28;20053;-77
2023/08/09 06:04:10;;;;;;;8.55;5.60;;;12.70;86.60;;;;;;5010579;28;21024;-77
2023/08/09 06:06:37;;;;;;;8.68;5.15;;;12.70;86.60;;;;;;5010833;28;20501;-76
2023/08/09 06:09:05;;;;;;;7.90;4.97;;;12.70;86.70;;;;;;5014982;28;20050;-76
2023/08/09 06:11:32;;;;;;;8.23;4.90;;;12.70;86.80;;;;;;5012403;28;20057;-77
2023/08/09 06:14:00;;;;;;;8.33;4.90;;;12.70;86.70;;;;;;5012775;28;20050;-77
2023/08/09 06:16:29;;;;;;;7.82;4.95;;;12.80;86.80;;;;;;5014754;28;20276;-76
2023/08/09 06:18:55;;;;;;;8.85;5.38;;;12.80;86.80;;;;;;5012635;28;20146;-76
2023/08/09 06:21:22;;;;;;;8.68;5.30;;;12.90;86.90;;;;;;5021746;28;20869;-77
2023/08/09 06:23:49;;;;;;;7.63;4.80;;;12.90;87.00;;;;;;5010602;28;20570;-75
2023/08/09 06:26:17;;;;;;;7.33;4.53;;;12.90;87.10;;;;;;5009612;28;20055;-77
2023/08/09 06:28:44;;;;;;;10.10;4.60;;;13.00;87.20;;;;;;5011909;28;20261;-76
2023/08/09 06:31:11;;;;;;;7.88;4.55;;;13.00;87.20;;;;;;5011372;28;20082;-77
2023/08/09 06:33:42;;;;;;;8.07;5.00;;;13.10;87.50;;;;;;5009738;28;20060;-77
2023/08/09 06:36:10;;;;;;;7.20;4.28;;;13.10;87.40;;;;;;5007980;28;20046;-76
2023/08/09 06:38:37;;;;;;;7.80;4.30;;;13.20;87.60;;;;;;5005903;28;20987;-77
2023/08/09 06:41:04;;;;;;;6.72;3.92;;;13.30;87.60;;;;;;5007681;28;20779;-76
2023/08/09 06:43:31;;;;;;;6.82;4.10;;;13.30;87.60;;;;;;5010564;28;20563;-77
2023/08/09 06:45:59;;;;;;;8.05;3.25;;;13.30;87.70;;;;;;5009595;28;20714;-76
2023/08/09 06:48:29;;;;;;;6.75;2.63;;;13.40;87.90;;;;;;5010577;28;20100;-77
2023/08/09 06:50:58;;;;;;;5.57;2.37;;;13.50;88.20;;;;;;5026368;28;20173;-77
2023/08/09 06:53:25;;;;;;;4.72;2.28;;;13.60;88.20;;;;;;4993700;28;20273;-77
2023/08/09 06:55:53;;;;;;;5.68;2.00;;;13.60;87.90;;;;;;5010526;28;20133;-76
2023/08/09 06:58:20;;;;;;;5.07;2.10;;;13.70;87.80;;;;;;5011510;28;20042;-76
2023/08/09 07:00:47;;;;;;;4.72;2.33;;;13.80;87.60;;;;;;5003426;28;20055;-76
2023/08/09 07:03:15;;;;;;;4.00;1.97;;;13.90;87.30;;;;;;5025750;28;20050;-76
2023/08/09 07:05:43;;;;;;;4.72;2.03;;;13.90;87.10;;;;;;5005164;28;20298;-76
2023/08/09 07:08:12;;;;;;;5.43;2.33;;;14.00;87.10;;;;;;4991306;28;20042;-77
2023/08/09 07:10:39;;;;;;;4.88;2.20;;;14.00;86.90;;;;;;5007974;28;20142;-77
2023/08/09 07:13:06;;;;;;;4.80;2.30;;;14.10;86.50;;;;;;5003993;28;20550;-76
2023/08/09 07:15:33;;;;;;;5.53;2.30;;;14.20;86.40;;;;;;4993173;28;20078;-75
2023/08/09 07:18:01;;;;;;;4.40;1.75;;;14.20;86.30;;;;;;5018483;28;20269;-75
2023/08/09 07:20:29;;;;;;;5.20;1.98;;;14.30;86.20;;;;;;5006348;28;20505;-76
2023/08/09 07:22:56;;;;;;;5.30;1.80;;;14.30;86.10;;;;;;5004576;28;20047;-76
2023/08/09 07:25:24;;;;;;;6.35;1.70;;;14.40;85.70;;;;;;5007535;28;20055;-77
2023/08/09 07:27:52;;;;;;;4.93;1.90;;;14.40;85.60;;;;;;5006071;28;20081;-76
2023/08/09 07:30:19;;;;;;;4.07;1.75;;;14.50;85.60;;;;;;5005872;28;20283;-75
2023/08/09 07:32:47;;;;;;;5.22;1.83;;;14.50;85.50;;;;;;5008081;28;20054;-76
2023/08/09 07:35:14;;;;;;;6.45;1.92;;;14.60;85.30;;;;;;5006648;28;20069;-75
2023/08/09 07:37:43;;;;;;;3.88;1.90;;;14.60;85.30;;;;;;5007242;28;20050;-76
2023/08/09 07:40:12;;;;;;;4.77;1.63;;;14.70;85.50;;;;;;5008924;28;20085;-76
2023/08/09 07:42:41;;;;;;;3.50;1.42;;;14.80;85.00;;;;;;5005888;28;20226;-75
2023/08/09 07:45:09;;;;;;;4.45;1.55;;;14.90;84.70;;;;;;5009779;28;20046;-77
2023/08/09 07:47:36;;;;;;;5.03;1.80;;;14.90;84.80;;;;;;5009980;28;20054;-77
2023/08/09 07:50:03;;;;;;;4.97;1.98;;;15.00;85.00;;;;;;4991289;28;20046;-76
2023/08/09 07:52:30;;;;;;;7.33;1.60;;;15.00;84.70;;;;;;5006576;28;20053;-76
2023/08/09 07:54:58;;;;;;;5.10;2.10;;;15.20;84.50;;;;;;4993686;28;20278;-78
2023/08/09 07:57:25;;;;;;;5.00;1.90;;;15.20;84.50;;;;;;5009939;28;20050;-76
2023/08/09 07:59:53;;;;;;;3.92;1.90;;;15.30;84.30;;;;;;5009327;28;20511;-76
2023/08/09 08:02:20;;;;;;;4.28;1.92;;;15.40;83.70;;;;;;5009076;28;20125;-77
2023/08/09 08:04:47;;;;;;;4.40;2.00;;;15.40;83.50;;;;;;5003015;28;20133;-78
2023/08/09 08:07:14;;;;;;;5.20;2.67;;;15.50;82.80;;;;;;5004927;28;20218;-78
2023/08/09 08:09:41;;;;;;;4.32;2.03;;;15.60;82.30;;;;;;5007685;28;20054;-76
2023/08/09 08:12:11;;;;;;;4.57;1.92;;;15.60;82.10;;;;;;5010910;28;20086;-78
2023/08/09 08:14:38;;;;;;;5.68;1.80;;;15.70;82.30;;;;;;5012507;28;20049;-78
2023/08/09 08:17:07;;;;;;;3.93;1.50;;;15.70;82.20;;;;;;4996703;28;20142;-77
2023/08/09 08:19:34;;;;;;;4.38;1.67;;;15.80;82.10;;;;;;5012156;28;20377;-77
2023/08/09 08:22:01;;;;;;;4.60;1.80;;;15.80;82.20;;;;;;5008020;28;20050;-77
2023/08/09 08:24:28;;;;;;;3.72;1.67;;;15.90;81.90;;;;;;5002350;28;20077;-76
2023/08/09 08:26:55;;;;;;;5.85;1.30;;;16.00;81.80;;;;;;4999134;28;20649;-76
2023/08/09 08:29:23;;;;;;;4.77;1.37;;;16.00;80.70;;;;;;5029642;28;20063;-76
2023/08/09 08:31:51;;;;;;;3.55;0.73;;;16.10;77.80;;;;;;5012596;28;20767;-77
2023/08/09 08:34:21;;;;;;;5.68;1.20;;;16.10;77.20;;;;;;5010351;28;20851;-77
2023/08/09 08:36:49;;;;;;;5.32;1.27;;;16.20;76.60;;;;;;5007094;28;20057;-77
2023/08/09 08:39:19;;;;;;;4.25;1.30;;;16.20;77.50;;;;;;5003555;28;20050;-77
2023/08/09 08:41:49;;;;;;;4.17;1.20;;;16.20;78.30;;;;;;4994363;28;20051;-77
2023/08/09 08:44:16;;;;;;;2.75;0.85;;;16.30;76.90;;;;;;5006647;28;20293;-77
2023/08/09 08:46:44;;;;;;;4.03;1.27;;;16.40;76.70;;;;;;5005681;28;20047;-77
2023/08/09 08:49:14;;;;;;;2.92;0.90;;;16.40;75.20;;;;;;5026848;28;20522;-77
2023/08/09 08:51:44;;;;;;;3.85;1.02;;;16.40;74.30;;;;;;5010060;28;20058;-78
2023/08/09 08:54:11;;;;;;;4.40;1.20;;;16.40;74.50;;;;;;5014215;28;20059;-77
2023/08/09 08:56:39;;;;;;;4.05;1.40;;;16.50;74.50;;;;;;5025976;28;20255;-76
2023/08/09 08:59:07;;;;;;;3.53;1.20;;;16.60;75.40;;;;;;5014924;28;20054;-78
2023/08/09 09:01:38;;;;;;;3.47;1.20;;;16.60;75.60;;;;;;5010536;28;20114;-80
2023/08/09 09:04:05;;;;;;;3.50;1.23;;;16.70;75.60;;;;;;5029564;28;20046;-77
2023/08/09 09:06:33;;;;;;;3.07;1.07;;;16.80;76.00;;;;;;4997747;28;20158;-76
2023/08/09 09:09:02;;;;;;;5.10;1.08;;;16.80;75.90;;;;;;5012366;28;20297;-76
2023/08/09 09:11:29;;;;;;;3.90;1.10;;;16.90;75.30;;;;;;5005803;28;20051;-76
2023/08/09 09:13:56;;;;;;;3.65;1.15;;;17.00;74.80;;;;;;5004905;28;20050;-79
2023/08/09 09:16:23;;;;;;;4.60;1.33;;;17.00;75.00;;;;;;5001048;28;20170;-75
2023/08/09 09:18:50;;;;;;;3.97;1.37;;;17.10;74.60;;;;;;5024482;28;20050;-76
2023/08/09 09:21:20;;;;;;;4.75;1.10;;;17.20;74.20;;;;;;5007197;28;20703;-71
2023/08/09 09:23:47;;;;;;;3.28;0.88;;;17.20;73.50;;;;;;5009144;28;20134;-72
2023/08/09 09:26:17;;;;;;;3.53;0.80;;;17.30;73.10;;;;;;5001264;28;20369;-75
2023/08/09 09:28:45;;;;;;;4.32;0.98;;;17.40;72.00;;;;;;4987885;28;20588;-75
2023/08/09 09:31:13;;;;;;;2.47;0.50;;;17.40;71.60;;;;;;5000478;28;20134;-73
2023/08/09 09:33:44;;;;;;;4.25;0.73;;;17.40;69.70;;;;;;5001708;28;20304;-73
2023/08/09 09:36:12;;;;;;;3.35;0.68;;;17.30;69.40;;;;;;5008134;28;20049;-73
2023/08/09 09:38:40;;;;;;;3.33;0.70;;;17.30;69.80;;;;;;5008150;28;20054;-74
2023/08/09 09:41:09;;;;;;;3.35;0.80;;;17.40;69.00;;;;;;5008265;28;20053;-74
2023/08/09 09:43:41;;;;;;;3.53;0.70;;;17.40;68.30;;;;;;5005874;28;20050;-74
2023/08/09 09:46:18;;;;;;;5.07;0.70;;;17.50;67.40;;;;;;5006699;28;20259;-74
2023/08/09 09:48:49;;;;;;;3.65;0.82;;;17.50;67.10;;;;;;5006007;28;20054;-75
2023/08/09 09:51:19;;;;;;;3.40;0.82;;;17.50;67.60;;;;;;5007256;28;20803;-74
2023/08/09 09:53:47;;;;;;;2.42;0.70;;;17.60;68.30;;;;;;5005815;28;20682;-74
2023/08/09 09:56:15;;;;;;;2.17;0.70;;;17.60;67.80;;;;;;5003530;28;20062;-75
2023/08/09 09:58:45;;;;;;;2.45;0.68;;;17.70;67.30;;;;;;4996396;28;20278;-74
2023/08/09 10:01:16;;;;;;;2.80;0.80;;;17.80;68.20;;;;;;5003121;28;20058;-74
2023/08/09 10:03:44;;;;;;;4.15;0.80;;;17.80;67.20;;;;;;5004090;28;20061;-74
2023/08/09 10:06:19;;;;;;;3.70;0.65;;;17.80;65.60;;;;;;5006750;28;20467;-74
2023/08/09 10:08:47;;;;;;;3.50;0.70;;;17.80;64.30;;;;;;5003530;28;20050;-73
2023/08/09 10:11:14;;;;;;;3.25;0.77;;;17.90;64.60;;;;;;5008726;28;20265;-74
2023/08/09 10:13:43;;;;;;;3.15;0.80;;;17.90;65.30;;;;;;5007899;28;20125;-74
2023/08/09 10:16:11;;;;;;;3.90;0.68;;;17.90;66.00;;;;;;5007574;28;20058;-74
2023/08/09 10:18:42;;;;;;;3.60;0.90;;;18.00;66.50;;;;;;5007195;28;20058;-75
2023/08/09 10:21:10;;;;;;;2.80;0.70;;;18.00;65.30;;;;;;5007393;28;20061;-73
2023/08/09 10:23:36;;;;;;;3.05;0.70;;;18.00;64.30;;;;;;5006977;28;20329;-73
2023/08/09 10:26:03;;;;;;;3.03;0.70;;;18.00;65.00;;;;;;5005124;28;20058;-70
2023/08/09 10:28:49;;;;;;;2.97;0.68;;;18.00;64.00;;;;;;5023390;28;20062;-71
2023/08/09 10:31:47;;;;;;;3.40;0.95;;;18.00;63.20;;;;;;4989404;28;20481;-73
2023/08/09 10:34:15;;;;;;;2.67;0.60;;;18.10;64.40;;;;;;5004426;28;20101;-73
2023/08/09 10:36:43;;;;;;;2.17;0.60;;;18.10;62.80;;;;;;5002802;28;20309;-73
2023/08/09 10:39:13;;;;;;;4.07;0.85;;;18.10;62.20;;;;;;5022749;28;20047;-74
2023/08/09 10:41:57;;;;;;;4.97;0.90;;;18.10;62.50;;;;;;5006386;28;20137;-74
2023/08/09 10:44:41;;;;;;;2.65;0.55;;;18.20;62.70;;;;;;5017783;28;20132;-75
2023/08/09 10:47:11;;;;;;;3.33;0.80;;;18.20;62.90;;;;;;5005786;28;20046;-75
2023/08/09 10:50:09;;;;;;;3.53;0.70;;;18.20;63.70;;;;;;5000905;28;20741;-75
2023/08/09 10:52:38;;;;;;;4.45;0.70;;;18.20;64.20;;;;;;5004773;28;20061;-75
2023/08/09 10:55:30;;;;;;;2.70;0.70;;;18.20;62.70;;;;;;4987663;28;20617;-75
2023/08/09 10:57:59;;;;;;;3.72;0.60;;;18.20;62.60;;;;;;5001652;28;20545;-75
2023/08/09 11:00:36;;;;;;;2.30;0.60;;;18.30;62.00;;;;;;5000354;28;20106;-75
2023/08/09 11:03:04;;;;;;;3.63;0.82;;;18.30;61.00;;;;;;5004178;28;20281;-75
2023/08/09 11:05:31;;;;;;;3.53;0.63;;;18.40;60.50;;;;;;5002299;28;20071;-75
2023/08/09 11:07:59;;;;;;;3.38;0.95;;;18.40;61.50;;;;;;5002246;28;20046;-75
2023/08/09 11:10:34;;;;;;;3.15;1.02;;;18.50;63.50;;;;;;5002653;28;20054;-74
2023/08/09 11:13:06;;;;;;;3.03;0.90;;;18.60;64.10;;;;;;4997997;28;20503;-74
2023/08/09 11:15:35;;;;;;;3.10;1.00;;;18.70;64.20;;;;;;5014518;28;20282;-75
2023/08/09 11:18:02;;;;;;;2.88;0.60;;;18.70;62.00;;;;;;5006316;28;20525;-75
2023/08/09 11:20:29;;;;;;;3.33;0.70;;;18.80;60.80;;;;;;4993842;28;20051;-75
2023/08/09 11:22:58;;;;;;;3.05;0.80;;;18.80;60.40;;;;;;4987757;28;20058;-75
2023/08/09 11:25:27;;;;;;;3.07;0.60;;;18.90;58.40;;;;;;5006352;28;20153;-75
2023/08/09 11:27:55;;;;;;;3.72;0.70;;;18.90;58.60;;;;;;5007622;28;20732;-75
2023/08/09 11:30:22;;;;;;;3.20;0.60;;;19.00;58.30;;;;;;5000397;28;20489;-74
2023/08/09 11:32:59;;;;;;;2.63;0.60;;;19.00;58.70;;;;;;4993247;28;20491;-74
2023/08/09 11:35:29;;;;;;;2.22;0.57;;;19.10;58.50;;;;;;5001968;28;20058;-74
2023/08/09 11:37:56;;;;;;;4.17;0.80;;;19.10;59.60;;;;;;4987699;28;20051;-75
2023/08/09 11:40:23;;;;;;;3.45;0.68;;;19.10;59.20;;;;;;4987838;28;21290;-75
2023/08/09 11:42:56;;;;;;;2.97;0.85;;;19.20;58.90;;;;;;4994755;28;20061;-74
2023/08/09 11:45:23;;;;;;;3.35;0.90;;;19.20;59.70;;;;;;5002501;28;20055;-74
2023/08/09 11:47:51;;;;;;;2.92;0.82;;;19.30;59.50;;;;;;4994246;28;20509;-75
2023/08/09 11:50:23;;;;;;;2.70;0.70;;;19.30;60.40;;;;;;5001920;28;20063;-74
2023/08/09 11:52:55;;;;;;;3.13;1.00;;;19.40;59.20;;;;;;5003189;28;20418;-74
2023/08/09 11:55:24;;;;;;;3.35;1.00;;;19.40;59.70;;;;;;5002022;28;20065;-75
2023/08/09 11:57:51;;;;;;;3.78;1.00;;;19.40;59.30;;;;;;4998072;28;20122;-75
2023/08/09 12:00:18;;;;;;;5.35;0.80;;;19.40;59.70;;;;;;5004162;28;20083;-75
2023/08/09 12:02:49;;;;;;;3.77;1.03;;;19.30;59.50;;;;;;5007307;28;20129;-75
2023/08/09 12:05:16;;;;;;;4.32;0.80;;;19.30;59.80;;;;;;5007116;28;20352;-74
2023/08/09 12:07:46;;;;;;;4.28;1.10;;;19.30;60.50;;;;;;5008364;28;21444;-73
2023/08/09 12:10:20;;;;;;;3.10;0.90;;;19.30;61.20;;;;;;5006561;28;20171;-74
2023/08/09 12:12:47;;;;;;;4.57;0.85;;;19.30;61.40;;;;;;5006895;28;20054;-74
2023/08/09 12:15:14;;;;;;;2.93;0.63;;;19.40;61.10;;;;;;5007298;28;20057;-74
2023/08/09 12:17:41;;;;;;;3.65;1.00;;;19.40;59.80;;;;;;5005466;28;20661;-74
2023/08/09 12:20:10;;;;;;;2.53;0.73;;;19.40;59.90;;;;;;5003710;28;20042;-74
2023/08/09 12:22:39;;;;;;;3.17;0.90;;;19.40;59.70;;;;;;5004190;28;20074;-74
2023/08/09 12:25:09;;;;;;;2.92;0.82;;;19.50;60.00;;;;;;5003121;28;20671;-74
2023/08/09 12:27:36;;;;;;;3.97;1.10;;;19.50;58.90;;;;;;4998962;28;20059;-74
2023/08/09 12:30:05;;;;;;;2.22;0.70;;;19.50;58.40;;;;;;4999150;28;20278;-74
2023/08/09 12:32:33;;;;;;;2.92;0.80;;;19.50;58.00;;;;;;5006817;28;20050;-74
2023/08/09 12:35:00;;;;;;;4.47;1.05;;;19.40;58.00;;;;;;5006893;28;20058;-74
2023/08/09 12:37:27;;;;;;;3.70;0.90;;;19.40;59.40;;;;;;5005395;28;20058;-74
2023/08/09 12:39:55;;;;;;;3.57;1.07;;;19.40;58.90;;;;;;5009812;28;20054;-74
2023/08/09 12:42:23;;;;;;;3.10;1.23;;;19.30;59.50;;;;;;5003633;28;20371;-74
2023/08/09 12:44:50;;;;;;;3.92;1.00;;;19.30;60.10;;;;;;5004891;28;20133;-74
2023/08/09 12:47:17;;;;;;;4.88;1.40;;;19.30;60.50;;;;;;5008077;28;20119;-74
2023/08/09 12:49:45;;;;;;;5.20;1.63;;;19.30;61.70;;;;;;5008083;28;20618;-74
2023/08/09 12:52:12;;;;;;;4.90;1.03;;;19.30;63.20;;;;;;5010692;28;20473;-74